sensor_id;sensor_type;location;lat;lon;timestamp;pressure;altitude;pressure_sealevel;temperature;humidity
48053;BME280;33824;51.600;5.718;2022-07-21T00:00:51;101592.75;;;20.49;89.87
48053;BME280;33824;51.600;5.718;2022-07-21T00:03:16;101594.84;;;20.47;90.10
48053;BME280;33824;51.600;5.718;2022-07-21T00:05:42;101587.53;;;20.47;89.94
48053;BME280;33824;51.600;5.718;2022-07-21T00:08:07;101588.38;;;20.48;89.79
48053;BME280;33824;51.600;5.718;2022-07-21T00:10:33;101583.84;;;20.42;89.50
48053;BME280;33824;51.600;5.718;2022-07-21T00:12:58;101590.94;;;20.43;89.55
48053;BME280;33824;51.600;5.718;2022-07-21T00:15:26;101587.59;;;20.41;89.44
48053;BME280;33824;51.600;5.718;2022-07-21T00:17:52;101597.78;;;20.45;89.41
48053;BME280;33824;51.600;5.718;2022-07-21T00:20:18;101601.78;;;20.43;88.97
48053;BME280;33824;51.600;5.718;2022-07-21T00:22:45;101592.81;;;20.42;88.82
48053;BME280;33824;51.600;5.718;2022-07-21T00:25:14;101599.91;;;20.37;88.75
48053;BME280;33824;51.600;5.718;2022-07-21T00:27:40;101602.88;;;20.35;88.85
48053;BME280;33824;51.600;5.718;2022-07-21T00:30:08;101601.66;;;20.31;88.59
48053;BME280;33824;51.600;5.718;2022-07-21T00:32:34;101592.06;;;20.29;88.74
48053;BME280;33824;51.600;5.718;2022-07-21T00:35:00;101588.72;;;20.27;88.98
48053;BME280;33824;51.600;5.718;2022-07-21T00:37:26;101587.50;;;20.23;89.04
48053;BME280;33824;51.600;5.718;2022-07-21T00:39:53;101585.41;;;20.25;89.06
48053;BME280;33824;51.600;5.718;2022-07-21T00:42:30;101587.59;;;20.09;89.17
48053;BME280;33824;51.600;5.718;2022-07-21T00:44:56;101577.53;;;20.17;88.79
48053;BME280;33824;51.600;5.718;2022-07-21T00:47:23;101583.19;;;20.15;88.98
48053;BME280;33824;51.600;5.718;2022-07-21T00:49:49;101572.13;;;20.17;89.05
48053;BME280;33824;51.600;5.718;2022-07-21T00:52:15;101571.69;;;20.20;88.66
48053;BME280;33824;51.600;5.718;2022-07-21T00:54:41;101575.06;;;20.15;88.96
48053;BME280;33824;51.600;5.718;2022-07-21T00:57:07;101566.94;;;20.15;88.73
48053;BME280;33824;51.600;5.718;2022-07-21T00:59:33;101569.47;;;20.10;88.87
48053;BME280;33824;51.600;5.718;2022-07-21T01:01:58;101579.84;;;20.13;88.77
48053;BME280;33824;51.600;5.718;2022-07-21T01:04:24;101576.72;;;20.16;88.70
48053;BME280;33824;51.600;5.718;2022-07-21T01:06:53;101571.31;;;20.16;88.93
48053;BME280;33824;51.600;5.718;2022-07-21T01:09:19;101576.72;;;20.16;88.35
48053;BME280;33824;51.600;5.718;2022-07-21T01:11:46;101572.13;;;20.17;88.30
48053;BME280;33824;51.600;5.718;2022-07-21T01:14:12;101569.41;;;20.17;88.29
48053;BME280;33824;51.600;5.718;2022-07-21T01:16:39;101570.69;;;20.14;88.32
48053;BME280;33824;51.600;5.718;2022-07-21T01:19:06;101571.72;;;20.13;88.16
48053;BME280;33824;51.600;5.718;2022-07-21T01:21:34;101565.94;;;20.09;88.47
48053;BME280;33824;51.600;5.718;2022-07-21T01:24:01;101573.44;;;20.07;88.63
48053;BME280;33824;51.600;5.718;2022-07-21T01:26:27;101566.81;;;20.03;89.08
48053;BME280;33824;51.600;5.718;2022-07-21T01:28:53;101566.59;;;20.05;88.83
48053;BME280;33824;51.600;5.718;2022-07-21T01:31:19;101562.00;;;20.05;88.73
48053;BME280;33824;51.600;5.718;2022-07-21T01:33:45;101560.56;;;20.03;88.60
48053;BME280;33824;51.600;5.718;2022-07-21T01:36:11;101560.78;;;20.01;88.66
48053;BME280;33824;51.600;5.718;2022-07-21T01:38:37;101551.44;;;19.97;88.95
48053;BME280;33824;51.600;5.718;2022-07-21T01:41:21;101541.28;;;19.93;89.03
48053;BME280;33824;51.600;5.718;2022-07-21T01:44:01;101548.38;;;19.87;88.67
48053;BME280;33824;51.600;5.718;2022-07-21T01:46:29;101550.44;;;19.92;88.64
48053;BME280;33824;51.600;5.718;2022-07-21T01:48:55;101550.22;;;19.93;88.55
48053;BME280;33824;51.600;5.718;2022-07-21T01:51:20;101553.16;;;19.92;89.00
48053;BME280;33824;51.600;5.718;2022-07-21T01:53:46;101555.66;;;19.93;88.80
48053;BME280;33824;51.600;5.718;2022-07-21T01:56:11;101550.22;;;19.93;89.11
48053;BME280;33824;51.600;5.718;2022-07-21T01:58:37;101555.41;;;19.95;89.27
48053;BME280;33824;51.600;5.718;2022-07-21T02:01:03;101559.72;;;20.02;89.13
48053;BME280;33824;51.600;5.718;2022-07-21T02:03:28;101553.53;;;19.95;90.00
48053;BME280;33824;51.600;5.718;2022-07-21T02:06:00;101558.16;;;19.88;89.29
48053;BME280;33824;51.600;5.718;2022-07-21T02:08:26;101551.88;;;19.94;89.62
48053;BME280;33824;51.600;5.718;2022-07-21T02:10:52;101550.81;;;19.95;89.42
48053;BME280;33824;51.600;5.718;2022-07-21T02:13:17;101555.19;;;19.96;89.51
48053;BME280;33824;51.600;5.718;2022-07-21T02:15:42;101559.53;;;19.97;89.19
48053;BME280;33824;51.600;5.718;2022-07-21T02:18:08;101549.78;;;19.96;89.02
48053;BME280;33824;51.600;5.718;2022-07-21T02:20:33;101550.19;;;20.00;89.66
48053;BME280;33824;51.600;5.718;2022-07-21T02:22:59;101555.97;;;20.03;89.40
48053;BME280;33824;51.600;5.718;2022-07-21T02:25:24;101560.13;;;20.06;89.47
48053;BME280;33824;51.600;5.718;2022-07-21T02:27:49;101562.19;;;20.10;88.87
48053;BME280;33824;51.600;5.718;2022-07-21T02:30:15;101560.63;;;20.21;89.11
48053;BME280;33824;51.600;5.718;2022-07-21T02:32:41;101552.91;;;20.25;88.70
48053;BME280;33824;51.600;5.718;2022-07-21T02:35:07;101552.47;;;20.28;88.47
48053;BME280;33824;51.600;5.718;2022-07-21T02:37:32;101549.34;;;20.31;88.28
48053;BME280;33824;51.600;5.718;2022-07-21T02:39:58;101550.78;;;20.33;88.08
48053;BME280;33824;51.600;5.718;2022-07-21T02:42:23;101552.66;;;20.33;88.12
48053;BME280;33824;51.600;5.718;2022-07-21T02:44:49;101546.78;;;20.36;87.92
48053;BME280;33824;51.600;5.718;2022-07-21T02:47:15;101547.41;;;20.38;87.77
48053;BME280;33824;51.600;5.718;2022-07-21T02:49:40;101552.84;;;20.38;87.55
48053;BME280;33824;51.600;5.718;2022-07-21T02:52:06;101548.84;;;20.40;87.51
48053;BME280;33824;51.600;5.718;2022-07-21T02:54:32;101549.47;;;20.42;87.52
48053;BME280;33824;51.600;5.718;2022-07-21T02:56:57;101539.47;;;20.43;87.37
48053;BME280;33824;51.600;5.718;2022-07-21T02:59:23;101540.28;;;20.43;87.47
48053;BME280;33824;51.600;5.718;2022-07-21T03:01:48;101540.91;;;20.45;87.00
48053;BME280;33824;51.600;5.718;2022-07-21T03:04:14;101542.31;;;20.48;87.35
48053;BME280;33824;51.600;5.718;2022-07-21T03:06:40;101546.25;;;20.52;87.18
48053;BME280;33824;51.600;5.718;2022-07-21T03:09:08;101544.97;;;20.54;86.93
48053;BME280;33824;51.600;5.718;2022-07-21T03:11:34;101547.47;;;20.56;86.59
48053;BME280;33824;51.600;5.718;2022-07-21T03:14:00;101542.88;;;20.56;86.30
48053;BME280;33824;51.600;5.718;2022-07-21T03:16:25;101548.09;;;20.58;86.44
48053;BME280;33824;51.600;5.718;2022-07-21T03:18:51;101549.72;;;20.59;86.63
48053;BME280;33824;51.600;5.718;2022-07-21T03:21:16;101543.63;;;20.64;86.43
48053;BME280;33824;51.600;5.718;2022-07-21T03:23:42;101546.13;;;20.65;86.09
48053;BME280;33824;51.600;5.718;2022-07-21T03:26:15;101536.25;;;20.52;86.18
48053;BME280;33824;51.600;5.718;2022-07-21T03:28:41;101542.03;;;20.56;86.38
48053;BME280;33824;51.600;5.718;2022-07-21T03:31:07;101539.13;;;20.57;86.32
48053;BME280;33824;51.600;5.718;2022-07-21T03:33:33;101549.13;;;20.57;86.25
48053;BME280;33824;51.600;5.718;2022-07-21T03:35:59;101554.09;;;20.60;86.10
48053;BME280;33824;51.600;5.718;2022-07-21T03:38:25;101549.88;;;20.64;86.24
48053;BME280;33824;51.600;5.718;2022-07-21T03:40:51;101553.19;;;20.66;85.88
48053;BME280;33824;51.600;5.718;2022-07-21T03:43:17;101553.88;;;20.62;86.07
48053;BME280;33824;51.600;5.718;2022-07-21T03:45:42;101561.84;;;20.56;86.09
48053;BME280;33824;51.600;5.718;2022-07-21T03:48:08;101565.00;;;20.53;85.99
48053;BME280;33824;51.600;5.718;2022-07-21T03:50:37;101563.91;;;20.54;86.50
48053;BME280;33824;51.600;5.718;2022-07-21T03:53:03;101551.59;;;20.58;86.32
48053;BME280;33824;51.600;5.718;2022-07-21T03:55:29;101551.97;;;20.62;85.92
48053;BME280;33824;51.600;5.718;2022-07-21T03:58:00;101544.97;;;20.54;86.01
48053;BME280;33824;51.600;5.718;2022-07-21T04:00:32;101542.50;;;20.53;86.37
48053;BME280;33824;51.600;5.718;2022-07-21T04:02:59;101545.97;;;20.60;86.25
48053;BME280;33824;51.600;5.718;2022-07-21T04:05:25;101539.31;;;20.56;86.21
48053;BME280;33824;51.600;5.718;2022-07-21T04:07:51;101547.00;;;20.59;86.19
48053;BME280;33824;51.600;5.718;2022-07-21T04:10:20;101543.25;;;20.60;86.37
48053;BME280;33824;51.600;5.718;2022-07-21T04:12:46;101540.72;;;20.65;86.13
48053;BME280;33824;51.600;5.718;2022-07-21T04:15:12;101541.75;;;20.64;86.20
48053;BME280;33824;51.600;5.718;2022-07-21T04:17:39;101536.72;;;20.68;86.08
48053;BME280;33824;51.600;5.718;2022-07-21T04:20:05;101549.81;;;20.71;86.13
48053;BME280;33824;51.600;5.718;2022-07-21T04:22:31;101546.06;;;20.72;86.14
48053;BME280;33824;51.600;5.718;2022-07-21T04:24:57;101545.84;;;20.73;86.21
48053;BME280;33824;51.600;5.718;2022-07-21T04:27:22;101547.72;;;20.73;86.09
48053;BME280;33824;51.600;5.718;2022-07-21T04:29:48;101548.56;;;20.73;85.92
48053;BME280;33824;51.600;5.718;2022-07-21T04:32:13;101543.94;;;20.74;86.10
48053;BME280;33824;51.600;5.718;2022-07-21T04:34:39;101548.56;;;20.73;85.84
48053;BME280;33824;51.600;5.718;2022-07-21T04:37:04;101553.53;;;20.76;86.08
48053;BME280;33824;51.600;5.718;2022-07-21T04:39:30;101553.75;;;20.75;86.01
48053;BME280;33824;51.600;5.718;2022-07-21T04:41:55;101552.53;;;20.71;86.06
48053;BME280;33824;51.600;5.718;2022-07-21T04:44:21;101551.09;;;20.68;86.24
48053;BME280;33824;51.600;5.718;2022-07-21T04:46:47;101555.91;;;20.66;86.43
48053;BME280;33824;51.600;5.718;2022-07-21T04:49:12;101543.44;;;20.65;86.38
48053;BME280;33824;51.600;5.718;2022-07-21T04:51:38;101550.47;;;20.66;86.19
48053;BME280;33824;51.600;5.718;2022-07-21T04:54:03;101545.22;;;20.71;86.13
48053;BME280;33824;51.600;5.718;2022-07-21T04:56:29;101541.69;;;20.71;86.28
48053;BME280;33824;51.600;5.718;2022-07-21T04:58:58;101547.09;;;20.71;85.75
48053;BME280;33824;51.600;5.718;2022-07-21T05:01:24;101552.31;;;20.72;85.87
48053;BME280;33824;51.600;5.718;2022-07-21T05:03:49;101541.69;;;20.71;86.15
48053;BME280;33824;51.600;5.718;2022-07-21T05:06:14;101553.97;;;20.73;86.11
48053;BME280;33824;51.600;5.718;2022-07-21T05:08:40;101555.22;;;20.71;85.79
48053;BME280;33824;51.600;5.718;2022-07-21T05:11:05;101555.63;;;20.74;85.98
48053;BME280;33824;51.600;5.718;2022-07-21T05:13:31;101558.56;;;20.73;85.98
48053;BME280;33824;51.600;5.718;2022-07-21T05:15:56;101558.31;;;20.74;85.89
48053;BME280;33824;51.600;5.718;2022-07-21T05:18:22;101555.56;;;20.81;85.89
48053;BME280;33824;51.600;5.718;2022-07-21T05:20:47;101549.81;;;20.89;85.80
48053;BME280;33824;51.600;5.718;2022-07-21T05:23:13;101556.09;;;20.89;85.75
48053;BME280;33824;51.600;5.718;2022-07-21T05:25:38;101558.78;;;20.89;85.54
48053;BME280;33824;51.600;5.718;2022-07-21T05:28:07;101555.56;;;20.81;85.49
48053;BME280;33824;51.600;5.718;2022-07-21T05:30:32;101555.63;;;20.74;86.17
48053;BME280;33824;51.600;5.718;2022-07-21T05:32:58;101559.91;;;20.64;86.67
48053;BME280;33824;51.600;5.718;2022-07-21T05:35:23;101551.97;;;20.62;86.29
48053;BME280;33824;51.600;5.718;2022-07-21T05:37:49;101549.69;;;20.66;85.89
48053;BME280;33824;51.600;5.718;2022-07-21T05:40:15;101553.53;;;20.76;86.24
48053;BME280;33824;51.600;5.718;2022-07-21T05:42:40;101535.09;;;20.85;85.95
48053;BME280;33824;51.600;5.718;2022-07-21T05:45:07;101540.19;;;20.93;85.83
48053;BME280;33824;51.600;5.718;2022-07-21T05:47:32;101537.44;;;20.99;85.70
48053;BME280;33824;51.600;5.718;2022-07-21T05:49:58;101540.66;;;21.08;85.46
48053;BME280;33824;51.600;5.718;2022-07-21T05:52:24;101536.63;;;21.17;85.60
48053;BME280;33824;51.600;5.718;2022-07-21T05:54:50;101536.91;;;21.27;85.14
48053;BME280;33824;51.600;5.718;2022-07-21T05:57:15;101535.19;;;21.33;85.41
48053;BME280;33824;51.600;5.718;2022-07-21T05:59:41;101530.81;;;21.32;85.36
48053;BME280;33824;51.600;5.718;2022-07-21T06:02:07;101539.78;;;21.32;85.43
48053;BME280;33824;51.600;5.718;2022-07-21T06:04:32;101538.34;;;21.30;85.34
48053;BME280;33824;51.600;5.718;2022-07-21T06:06:58;101539.13;;;21.19;85.15
48053;BME280;33824;51.600;5.718;2022-07-21T06:09:24;101539.22;;;21.05;85.27
48053;BME280;33824;51.600;5.718;2022-07-21T06:11:49;101529.59;;;21.10;84.93
48053;BME280;33824;51.600;5.718;2022-07-21T06:14:15;101532.59;;;21.01;84.52
48053;BME280;33824;51.600;5.718;2022-07-21T06:16:40;101543.28;;;20.96;84.69
48053;BME280;33824;51.600;5.718;2022-07-21T06:19:06;101550.06;;;20.87;85.11
48053;BME280;33824;51.600;5.718;2022-07-21T06:21:34;101546.97;;;20.84;85.21
48053;BME280;33824;51.600;5.718;2022-07-21T06:24:00;101545.03;;;20.91;84.70
48053;BME280;33824;51.600;5.718;2022-07-21T06:26:26;101542.31;;;20.91;84.84
48053;BME280;33824;51.600;5.718;2022-07-21T06:28:52;101542.31;;;20.91;84.59
48053;BME280;33824;51.600;5.718;2022-07-21T06:31:18;101551.50;;;20.90;85.07
48053;BME280;33824;51.600;5.718;2022-07-21T06:33:43;101545.03;;;20.91;84.65
48053;BME280;33824;51.600;5.718;2022-07-21T06:36:09;101548.03;;;21.01;84.43
48053;BME280;33824;51.600;5.718;2022-07-21T06:38:34;101548.66;;;21.03;84.21
48053;BME280;33824;51.600;5.718;2022-07-21T06:41:00;101547.16;;;21.07;83.89
48053;BME280;33824;51.600;5.718;2022-07-21T06:43:26;101547.94;;;21.14;84.16
48053;BME280;33824;51.600;5.718;2022-07-21T06:45:51;101547.63;;;21.22;83.46
48053;BME280;33824;51.600;5.718;2022-07-21T06:48:16;101554.38;;;21.31;83.75
48053;BME280;33824;51.600;5.718;2022-07-21T06:50:43;101555.91;;;21.27;83.17
48053;BME280;33824;51.600;5.718;2022-07-21T06:53:09;101556.41;;;21.36;83.03
48053;BME280;33824;51.600;5.718;2022-07-21T06:55:34;101563.78;;;21.47;82.77
48053;BME280;33824;51.600;5.718;2022-07-21T06:58:12;101556.63;;;21.52;82.97
48053;BME280;33824;51.600;5.718;2022-07-21T07:00:37;101556.44;;;21.66;82.31
48053;BME280;33824;51.600;5.718;2022-07-21T07:03:03;101557.28;;;21.66;82.21
48053;BME280;33824;51.600;5.718;2022-07-21T07:05:29;101564.06;;;21.75;82.26
48053;BME280;33824;51.600;5.718;2022-07-21T07:07:56;101561.56;;;21.74;82.03
48053;BME280;33824;51.600;5.718;2022-07-21T07:10:22;101565.38;;;21.84;81.56
48053;BME280;33824;51.600;5.718;2022-07-21T07:12:47;101567.03;;;21.85;81.58
48053;BME280;33824;51.600;5.718;2022-07-21T07:15:13;101561.34;;;22.05;80.98
48053;BME280;33824;51.600;5.718;2022-07-21T07:17:38;101552.75;;;22.20;80.97
48053;BME280;33824;51.600;5.718;2022-07-21T07:20:08;101548.66;;;22.29;79.96
48053;BME280;33824;51.600;5.718;2022-07-21T07:22:34;101552.19;;;22.29;79.71
48053;BME280;33824;51.600;5.718;2022-07-21T07:24:59;101550.19;;;22.36;78.88
48053;BME280;33824;51.600;5.718;2022-07-21T07:27:25;101553.50;;;22.50;79.32
48053;BME280;33824;51.600;5.718;2022-07-21T07:29:51;101553.38;;;22.57;78.85
48053;BME280;33824;51.600;5.718;2022-07-21T07:32:16;101553.84;;;22.65;78.67
48053;BME280;33824;51.600;5.718;2022-07-21T07:34:42;101553.97;;;22.47;77.99
48053;BME280;33824;51.600;5.718;2022-07-21T07:37:07;101549.59;;;22.58;77.86
48053;BME280;33824;51.600;5.718;2022-07-21T07:39:33;101561.56;;;22.68;77.58
48053;BME280;33824;51.600;5.718;2022-07-21T07:41:59;101563.44;;;22.68;77.79
48053;BME280;33824;51.600;5.718;2022-07-21T07:44:24;101557.41;;;22.54;77.47
48053;BME280;33824;51.600;5.718;2022-07-21T07:46:50;101553.00;;;22.41;76.98
48053;BME280;33824;51.600;5.718;2022-07-21T07:49:16;101549.84;;;22.44;77.60
48053;BME280;33824;51.600;5.718;2022-07-21T07:51:42;101557.88;;;22.39;77.49
48053;BME280;33824;51.600;5.718;2022-07-21T07:54:08;101563.78;;;22.48;77.24
48053;BME280;33824;51.600;5.718;2022-07-21T07:56:33;101564.59;;;22.60;77.22
48053;BME280;33824;51.600;5.718;2022-07-21T07:58:59;101561.47;;;22.75;77.43
48053;BME280;33824;51.600;5.718;2022-07-21T08:01:25;101562.03;;;22.88;77.33
48053;BME280;33824;51.600;5.718;2022-07-21T08:03:50;101557.28;;;22.95;76.54
48053;BME280;33824;51.600;5.718;2022-07-21T08:06:16;101563.69;;;23.01;76.39
48053;BME280;33824;51.600;5.718;2022-07-21T08:08:41;101571.00;;;23.12;76.44
48053;BME280;33824;51.600;5.718;2022-07-21T08:11:07;101564.75;;;23.00;75.78
48053;BME280;33824;51.600;5.718;2022-07-21T08:13:32;101567.81;;;23.04;76.04
48053;BME280;33824;51.600;5.718;2022-07-21T08:18:23;101563.38;;;23.26;76.00
48053;BME280;33824;51.600;5.718;2022-07-21T08:20:49;101564.41;;;23.36;75.78
48053;BME280;33824;51.600;5.718;2022-07-21T08:23:15;101572.59;;;23.25;75.72
48053;BME280;33824;51.600;5.718;2022-07-21T08:25:42;101574.16;;;23.21;75.31
48053;BME280;33824;51.600;5.718;2022-07-21T08:28:07;101571.84;;;23.01;75.51
48053;BME280;33824;51.600;5.718;2022-07-21T08:30:34;101583.44;;;22.85;75.77
48053;BME280;33824;51.600;5.718;2022-07-21T08:33:00;101581.41;;;22.69;76.05
48053;BME280;33824;51.600;5.718;2022-07-21T08:35:26;101580.34;;;22.58;76.50
48053;BME280;33824;51.600;5.718;2022-07-21T08:37:59;101579.72;;;22.33;76.69
48053;BME280;33824;51.600;5.718;2022-07-21T08:40:27;101583.47;;;22.20;77.41
48053;BME280;33824;51.600;5.718;2022-07-21T08:42:53;101588.28;;;22.07;77.79
48053;BME280;33824;51.600;5.718;2022-07-21T08:45:20;101586.09;;;21.97;78.09
48053;BME280;33824;51.600;5.718;2022-07-21T08:47:51;101589.00;;;21.66;79.41
48053;BME280;33824;51.600;5.718;2022-07-21T08:50:17;101593.41;;;21.48;80.18
48053;BME280;33824;51.600;5.718;2022-07-21T08:52:43;101589.34;;;21.21;81.77
48053;BME280;33824;51.600;5.718;2022-07-21T08:55:08;101589.53;;;21.01;82.65
48053;BME280;33824;51.600;5.718;2022-07-21T08:57:34;101586.44;;;20.80;84.11
48053;BME280;33824;51.600;5.718;2022-07-21T09:00:03;101584.22;;;20.70;85.22
48053;BME280;33824;51.600;5.718;2022-07-21T09:02:32;101592.19;;;20.65;85.72
48053;BME280;33824;51.600;5.718;2022-07-21T09:04:58;101592.31;;;20.52;86.29
48053;BME280;33824;51.600;5.718;2022-07-21T09:07:24;101586.94;;;20.45;86.93
48053;BME280;33824;51.600;5.718;2022-07-21T09:09:56;101584.31;;;20.32;87.54
48053;BME280;33824;51.600;5.718;2022-07-21T09:12:22;101585.19;;;20.26;88.56
48053;BME280;33824;51.600;5.718;2022-07-21T09:14:48;101585.84;;;20.22;89.42
48053;BME280;33824;51.600;5.718;2022-07-21T09:17:16;101583.84;;;20.10;90.09
48053;BME280;33824;51.600;5.718;2022-07-21T09:19:44;101584.47;;;20.06;90.60
48053;BME280;33824;51.600;5.718;2022-07-21T09:22:14;101583.69;;;19.99;91.22
48053;BME280;33824;51.600;5.718;2022-07-21T09:24:48;101589.63;;;19.83;92.75
48053;BME280;33824;51.600;5.718;2022-07-21T09:27:25;101588.31;;;19.92;92.35
48053;BME280;33824;51.600;5.718;2022-07-21T09:29:51;101594.56;;;19.92;92.67
48053;BME280;33824;51.600;5.718;2022-07-21T09:32:29;101589.81;;;19.88;93.23
48053;BME280;33824;51.600;5.718;2022-07-21T09:35:01;101602.16;;;19.77;93.62
48053;BME280;33824;51.600;5.718;2022-07-21T09:37:29;101602.56;;;19.81;94.69
48053;BME280;33824;51.600;5.718;2022-07-21T09:39:57;101600.28;;;19.78;94.31
48053;BME280;33824;51.600;5.718;2022-07-21T09:45:01;101610.72;;;19.74;95.30
48053;BME280;33824;51.600;5.718;2022-07-21T09:47:28;101605.25;;;19.81;95.14
48053;BME280;33824;51.600;5.718;2022-07-21T09:49:56;101617.31;;;19.85;95.73
48053;BME280;33824;51.600;5.718;2022-07-21T09:52:22;101610.22;;;19.84;96.76
48053;BME280;33824;51.600;5.718;2022-07-21T09:54:49;101613.78;;;19.84;96.59
48053;BME280;33824;51.600;5.718;2022-07-21T09:57:16;101611.06;;;19.84;97.03
48053;BME280;33824;51.600;5.718;2022-07-21T09:59:43;101618.16;;;19.85;97.96
48053;BME280;33824;51.600;5.718;2022-07-21T10:02:24;101611.94;;;19.78;97.98
48053;BME280;33824;51.600;5.718;2022-07-21T10:05:08;101618.44;;;19.71;98.34
48053;BME280;33824;51.600;5.718;2022-07-21T10:07:40;101619.44;;;19.76;98.61
48053;BME280;33824;51.600;5.718;2022-07-21T10:10:06;101620.63;;;19.87;99.06
48053;BME280;33824;51.600;5.718;2022-07-21T10:12:32;101622.09;;;19.89;98.90
48053;BME280;33824;51.600;5.718;2022-07-21T10:14:57;101630.44;;;19.81;99.13
48053;BME280;33824;51.600;5.718;2022-07-21T10:17:24;101623.16;;;19.75;99.25
48053;BME280;33824;51.600;5.718;2022-07-21T10:20:14;101626.41;;;19.46;99.92
48053;BME280;33824;51.600;5.718;2022-07-21T10:23:15;101624.94;;;19.37;100.00
48053;BME280;33824;51.600;5.718;2022-07-21T10:25:41;101634.34;;;19.47;100.00
48053;BME280;33824;51.600;5.718;2022-07-21T10:28:21;101637.03;;;19.34;100.00
48053;BME280;33824;51.600;5.718;2022-07-21T10:30:57;101636.00;;;19.42;100.00
48053;BME280;33824;51.600;5.718;2022-07-21T10:41:42;101658.22;;;19.37;100.00
48053;BME280;33824;51.600;5.718;2022-07-21T10:50:00;101659.53;;;19.28;100.00
48053;BME280;33824;51.600;5.718;2022-07-21T10:57:36;101658.00;;;19.58;100.00
48053;BME280;33824;51.600;5.718;2022-07-21T11:02:48;101661.97;;;19.49;100.00
48053;BME280;33824;51.600;5.718;2022-07-21T11:05:14;101665.72;;;19.48;100.00
48053;BME280;33824;51.600;5.718;2022-07-21T11:10:37;101667.81;;;19.40;100.00
48053;BME280;33824;51.600;5.718;2022-07-21T11:13:03;101666.78;;;19.34;100.00
48053;BME280;33824;51.600;5.718;2022-07-21T11:16:00;101673.69;;;19.17;100.00
48053;BME280;33824;51.600;5.718;2022-07-21T11:18:29;101674.09;;;19.21;100.00
48053;BME280;33824;51.600;5.718;2022-07-21T11:21:12;101669.50;;;19.14;100.00
48053;BME280;33824;51.600;5.718;2022-07-21T11:23:50;101669.91;;;19.18;100.00
48053;BME280;33824;51.600;5.718;2022-07-21T11:26:18;101669.69;;;19.33;100.00
48053;BME280;33824;51.600;5.718;2022-07-21T11:28:46;101672.81;;;19.36;100.00
48053;BME280;33824;51.600;5.718;2022-07-21T11:31:20;101680.75;;;19.25;100.00
48053;BME280;33824;51.600;5.718;2022-07-21T11:33:48;101680.50;;;19.33;100.00
48053;BME280;33824;51.600;5.718;2022-07-21T11:36:30;101669.28;;;19.23;100.00
48053;BME280;33824;51.600;5.718;2022-07-21T11:39:03;101675.53;;;19.30;100.00
48053;BME280;33824;51.600;5.718;2022-07-21T11:41:29;101669.69;;;19.33;100.00
48053;BME280;33824;51.600;5.718;2022-07-21T11:43:58;101675.09;;;19.33;100.00
48053;BME280;33824;51.600;5.718;2022-07-21T11:46:23;101676.56;;;19.35;100.00
48053;BME280;33824;51.600;5.718;2022-07-21T11:49:00;101676.59;;;19.29;100.00
48053;BME280;33824;51.600;5.718;2022-07-21T11:51:26;101679.66;;;19.39;100.00
48053;BME280;33824;51.600;5.718;2022-07-21T11:53:52;101679.28;;;19.42;100.00
48053;BME280;33824;51.600;5.718;2022-07-21T11:56:17;101681.75;;;19.37;100.00
48053;BME280;33824;51.600;5.718;2022-07-21T11:58:43;101680.31;;;19.34;100.00
48053;BME280;33824;51.600;5.718;2022-07-21T12:01:09;101678.66;;;19.27;100.00
48053;BME280;33824;51.600;5.718;2022-07-21T12:03:54;101677.22;;;19.11;100.00
48053;BME280;33824;51.600;5.718;2022-07-21T12:06:20;101679.50;;;19.14;100.00
48053;BME280;33824;51.600;5.718;2022-07-21T12:08:45;101681.78;;;19.10;100.00
48053;BME280;33824;51.600;5.718;2022-07-21T12:11:11;101680.75;;;19.11;100.00
48053;BME280;33824;51.600;5.718;2022-07-21T12:13:55;101683.25;;;19.06;100.00
48053;BME280;33824;51.600;5.718;2022-07-21T12:16:21;101684.28;;;19.18;100.00
48053;BME280;33824;51.600;5.718;2022-07-21T12:18:47;101686.16;;;19.25;100.00
48053;BME280;33824;51.600;5.718;2022-07-21T12:21:12;101680.09;;;19.29;100.00
48053;BME280;33824;51.600;5.718;2022-07-21T12:23:38;101684.03;;;19.40;100.00
48053;BME280;33824;51.600;5.718;2022-07-21T12:26:05;101680.09;;;19.42;100.00
48053;BME280;33824;51.600;5.718;2022-07-21T12:28:45;101678.41;;;19.41;100.00
48053;BME280;33824;51.600;5.718;2022-07-21T12:31:13;101687.97;;;19.57;100.00
48053;BME280;33824;51.600;5.718;2022-07-21T12:33:41;101688.34;;;19.67;100.00
48053;BME280;33824;51.600;5.718;2022-07-21T12:36:08;101682.53;;;19.63;100.00
48053;BME280;33824;51.600;5.718;2022-07-21T12:41:05;101691.75;;;19.49;100.00
48053;BME280;33824;51.600;5.718;2022-07-21T12:43:30;101693.19;;;19.52;100.00
48053;BME280;33824;51.600;5.718;2022-07-21T12:46:01;101696.31;;;19.55;100.00
48053;BME280;33824;51.600;5.718;2022-07-21T12:48:34;101694.25;;;19.51;100.00
48053;BME280;33824;51.600;5.718;2022-07-21T12:53:31;101689.38;;;19.73;100.00
48053;BME280;33824;51.600;5.718;2022-07-21T12:55:57;101693.56;;;19.69;100.00
48053;BME280;33824;51.600;5.718;2022-07-21T12:58:23;101690.47;;;19.58;100.00
48053;BME280;33824;51.600;5.718;2022-07-21T13:00:49;101695.72;;;19.47;100.00
48053;BME280;33824;51.600;5.718;2022-07-21T13:03:15;101699.88;;;19.43;100.00
48053;BME280;33824;51.600;5.718;2022-07-21T13:05:40;101693.22;;;19.32;100.00
48053;BME280;33824;51.600;5.718;2022-07-21T13:08:06;101696.97;;;19.25;100.00
48053;BME280;33824;51.600;5.718;2022-07-21T13:10:31;101701.31;;;19.26;100.00
48053;BME280;33824;51.600;5.718;2022-07-21T13:12:57;101696.53;;;19.34;100.00
48053;BME280;33824;51.600;5.718;2022-07-21T13:15:22;101705.28;;;19.36;100.00
48053;BME280;33824;51.600;5.718;2022-07-21T13:17:48;101699.66;;;19.44;100.00
48053;BME280;33824;51.600;5.718;2022-07-21T13:20:14;101704.00;;;19.52;100.00
48053;BME280;33824;51.600;5.718;2022-07-21T13:22:40;101705.44;;;19.61;100.00